Time;durP1;ratioP1;P1;durP2;ratioP2;P2;SDS_P1;SDS_P2;PMS_P1;PMS_P2;Temp;Humidity;BMP_temperature;BMP_pressure;BME280_temperature;BME280_humidity;BME280_pressure;Samples;Min_cycle;Max_cycle;Signal;HPM_P1;HPM_P2
2022/08/16 00:00:51;;;;;;;2.27;1.10;;;19.00;81.60;;;;;;5034227;28;20449;-66
2022/08/16 00:03:18;;;;;;;2.30;1.30;;;19.00;81.30;;;;;;5035232;28;20438;-66
2022/08/16 00:05:46;;;;;;;2.60;1.20;;;19.00;81.50;;;;;;5034015;28;20963;-66
2022/08/16 00:08:13;;;;;;;2.43;1.07;;;19.00;82.00;;;;;;5035276;28;20433;-66
2022/08/16 00:10:40;;;;;;;2.37;1.40;;;18.90;82.80;;;;;;5033842;28;20770;-66
2022/08/16 00:13:10;;;;;;;2.40;1.40;;;18.90;83.20;;;;;;5034902;28;20972;-67
2022/08/16 00:15:41;;;;;;;2.40;1.30;;;18.90;83.40;;;;;;5034240;28;20441;-66
2022/08/16 00:18:09;;;;;;;2.23;1.20;;;18.90;83.60;;;;;;5035025;28;20890;-66
2022/08/16 00:20:38;;;;;;;2.87;1.30;;;18.90;83.80;;;;;;5033989;28;20521;-67
2022/08/16 00:23:06;;;;;;;5.80;1.50;;;18.90;83.80;;;;;;5035309;28;20446;-66
2022/08/16 00:25:33;;;;;;;2.73;1.43;;;18.90;83.50;;;;;;5033863;28;20429;-66
2022/08/16 00:28:00;;;;;;;5.47;1.47;;;18.90;83.70;;;;;;5034709;28;20496;-66
2022/08/16 00:30:29;;;;;;;2.77;1.50;;;18.90;83.70;;;;;;5033376;28;20539;-66
2022/08/16 00:32:58;;;;;;;2.53;1.70;;;18.90;83.80;;;;;;5034661;28;20849;-66
2022/08/16 00:35:29;;;;;;;3.57;1.67;;;19.00;83.80;;;;;;5034001;28;20814;-66
2022/08/16 00:37:56;;;;;;;2.50;1.53;;;19.00;83.60;;;;;;5034637;28;20452;-66
2022/08/16 00:40:27;;;;;;;2.50;1.40;;;19.00;83.30;;;;;;5029280;28;20483;-71
2022/08/16 00:42:55;;;;;;;2.20;1.50;;;19.00;83.40;;;;;;5014717;28;20851;-66
2022/08/16 00:45:33;;;;;;;3.47;1.33;;;19.00;84.20;;;;;;5013963;28;20497;-66
2022/08/16 00:48:03;;;;;;;2.30;1.30;;;19.00;83.60;;;;;;5014518;28;20471;-66
2022/08/16 00:50:34;;;;;;;2.30;1.30;;;19.00;83.90;;;;;;5014714;28;20565;-66
2022/08/16 00:53:01;;;;;;;2.30;1.13;;;19.10;83.80;;;;;;5033554;28;20845;-67
2022/08/16 00:55:30;;;;;;;2.23;1.30;;;19.10;83.70;;;;;;5031682;28;20443;-66
2022/08/16 00:57:58;;;;;;;2.20;1.20;;;19.10;83.90;;;;;;5033908;28;20468;-66
2022/08/16 01:00:27;;;;;;;2.53;1.53;;;19.10;83.80;;;;;;5018446;28;20565;-66
2022/08/16 01:02:57;;;;;;;3.53;1.40;;;19.00;83.80;;;;;;5014292;28;20450;-66
2022/08/16 01:05:25;;;;;;;2.23;1.37;;;19.00;84.10;;;;;;5013918;28;20502;-66
2022/08/16 01:07:53;;;;;;;2.23;1.30;;;19.00;84.20;;;;;;5014195;28;20442;-66
2022/08/16 01:10:21;;;;;;;4.00;1.20;;;19.00;84.00;;;;;;5013916;28;20470;-66
2022/08/16 01:12:48;;;;;;;2.30;1.40;;;19.00;83.90;;;;;;5014027;28;20455;-66
2022/08/16 01:15:15;;;;;;;2.10;1.40;;;19.00;84.40;;;;;;5013124;28;20439;-66
2022/08/16 01:17:44;;;;;;;3.37;1.27;;;18.90;84.90;;;;;;5014072;28;20442;-66
2022/08/16 01:20:14;;;;;;;2.30;1.43;;;18.90;85.40;;;;;;5013848;28;20533;-66
2022/08/16 01:22:51;;;;;;;3.03;1.67;;;18.80;86.20;;;;;;5013970;28;20435;-66
2022/08/16 01:25:25;;;;;;;4.00;1.63;;;18.80;86.40;;;;;;5013449;28;20504;-66
2022/08/16 01:27:55;;;;;;;2.13;1.20;;;18.80;86.40;;;;;;5013910;28;20489;-66
2022/08/16 01:30:26;;;;;;;2.47;1.43;;;18.80;86.40;;;;;;5013867;28;20513;-66
2022/08/16 01:32:55;;;;;;;2.90;1.33;;;18.80;86.50;;;;;;5013543;28;20479;-66
2022/08/16 01:35:28;;;;;;;2.27;1.00;;;18.80;86.30;;;;;;5013600;28;20446;-66
2022/08/16 01:37:57;;;;;;;2.10;1.23;;;18.80;86.00;;;;;;5013520;28;20465;-66
2022/08/16 01:40:29;;;;;;;2.27;1.47;;;18.70;85.70;;;;;;5013483;28;20972;-66
2022/08/16 01:42:56;;;;;;;2.27;1.20;;;18.60;86.00;;;;;;5013663;28;20550;-66
2022/08/16 01:45:24;;;;;;;2.37;1.40;;;18.60;85.40;;;;;;5011682;28;20501;-66
2022/08/16 01:47:52;;;;;;;4.30;1.67;;;18.60;85.10;;;;;;5013252;28;20865;-66
2022/08/16 01:50:21;;;;;;;5.53;1.40;;;18.60;85.30;;;;;;5013522;28;20444;-66
2022/08/16 01:52:49;;;;;;;3.50;1.60;;;18.60;85.20;;;;;;5013382;28;20451;-66
2022/08/16 01:55:18;;;;;;;5.17;1.80;;;18.60;85.50;;;;;;5013244;28;21065;-66
2022/08/16 01:57:46;;;;;;;2.10;1.33;;;18.60;85.50;;;;;;5013370;28;20488;-66
2022/08/16 02:00:15;;;;;;;3.03;1.33;;;18.60;85.70;;;;;;5013011;28;20447;-66
2022/08/16 02:02:43;;;;;;;3.13;1.43;;;18.60;85.80;;;;;;5013232;28;20541;-66
2022/08/16 02:05:12;;;;;;;2.37;1.40;;;18.60;85.80;;;;;;5013433;28;20450;-66
2022/08/16 02:07:40;;;;;;;2.93;1.47;;;18.50;86.00;;;;;;5013203;28;20508;-66
2022/08/16 02:10:08;;;;;;;2.93;1.33;;;18.50;86.10;;;;;;5013076;28;20591;-68
2022/08/16 02:12:35;;;;;;;5.50;1.87;;;18.50;86.20;;;;;;5012947;28;20989;-66
2022/08/16 02:15:05;;;;;;;2.73;1.43;;;18.50;86.30;;;;;;5012994;28;20451;-66
2022/08/16 02:17:32;;;;;;;4.10;1.90;;;18.40;86.70;;;;;;5013049;28;20443;-67
2022/08/16 02:19:59;;;;;;;2.53;1.73;;;18.30;86.90;;;;;;5020592;28;20426;-66
2022/08/16 02:22:27;;;;;;;5.10;1.50;;;18.30;87.20;;;;;;5032556;28;20445;-66
2022/08/16 02:24:54;;;;;;;4.00;2.00;;;18.20;87.20;;;;;;5031797;28;20453;-66
2022/08/16 02:27:22;;;;;;;2.60;1.67;;;18.10;88.00;;;;;;5032397;28;20461;-66
2022/08/16 02:29:49;;;;;;;4.27;1.53;;;18.00;88.40;;;;;;5019493;28;20801;-73
2022/08/16 02:32:18;;;;;;;5.43;1.90;;;18.00;88.20;;;;;;5009421;28;20478;-66
2022/08/16 02:34:45;;;;;;;3.07;1.67;;;17.90;88.60;;;;;;5012782;28;20442;-66
2022/08/16 02:37:12;;;;;;;2.90;1.93;;;17.90;88.80;;;;;;5012733;28;20850;-66
2022/08/16 02:39:44;;;;;;;2.37;1.30;;;17.90;88.80;;;;;;5022098;28;20469;-66
2022/08/16 02:42:11;;;;;;;2.00;1.20;;;17.90;88.80;;;;;;5031369;28;20477;-66
2022/08/16 02:44:38;;;;;;;2.67;1.60;;;17.90;88.60;;;;;;5031338;28;20517;-66
2022/08/16 02:47:05;;;;;;;2.67;1.53;;;17.80;88.60;;;;;;5032218;28;20465;-66
2022/08/16 02:49:35;;;;;;;2.80;1.63;;;17.80;88.80;;;;;;5031602;28;20446;-66
2022/08/16 02:52:02;;;;;;;3.03;1.57;;;17.70;89.00;;;;;;5030142;28;20916;-66
2022/08/16 02:54:29;;;;;;;3.77;1.57;;;17.60;89.50;;;;;;5032482;28;20457;-66
2022/08/16 02:56:56;;;;;;;3.23;1.33;;;17.50;89.70;;;;;;5031070;28;20445;-66
2022/08/16 02:59:23;;;;;;;2.30;1.40;;;17.40;89.70;;;;;;5032164;28;20437;-66
2022/08/16 03:01:50;;;;;;;3.33;2.00;;;17.40;89.60;;;;;;5031608;28;20469;-66
2022/08/16 03:04:17;;;;;;;4.23;1.90;;;17.30;89.50;;;;;;5032132;28;20438;-66
2022/08/16 03:06:46;;;;;;;7.20;1.73;;;17.20;89.50;;;;;;5032132;28;20514;-66
2022/08/16 03:09:13;;;;;;;2.70;1.70;;;17.20;89.80;;;;;;5038839;28;20441;-66
2022/08/16 03:11:40;;;;;;;3.33;1.90;;;17.20;89.80;;;;;;5037611;28;20504;-66
2022/08/16 03:14:08;;;;;;;3.80;1.90;;;17.20;89.60;;;;;;5037651;28;20449;-67
2022/08/16 03:16:35;;;;;;;4.13;2.00;;;17.20;89.70;;;;;;5038632;28;20445;-67
2022/08/16 03:19:02;;;;;;;2.30;1.30;;;17.10;89.70;;;;;;5037932;28;20500;-66
2022/08/16 03:21:31;;;;;;;2.40;1.70;;;17.20;89.90;;;;;;5031397;28;20496;-66
2022/08/16 03:23:59;;;;;;;2.90;1.63;;;17.20;89.70;;;;;;5018669;28;20925;-66
2022/08/16 03:26:26;;;;;;;2.20;1.27;;;17.20;89.30;;;;;;5018524;28;20435;-66
2022/08/16 03:28:53;;;;;;;2.83;1.60;;;17.10;89.70;;;;;;5018690;28;20464;-72
2022/08/16 03:31:20;;;;;;;3.57;1.90;;;17.00;89.50;;;;;;5018355;28;20477;-66
2022/08/16 03:33:47;;;;;;;2.63;1.77;;;17.00;89.90;;;;;;5018688;28;20435;-66
2022/08/16 03:36:14;;;;;;;3.40;1.70;;;16.90;89.90;;;;;;5018312;28;20446;-66
2022/08/16 03:38:42;;;;;;;4.57;2.23;;;16.80;90.00;;;;;;5018622;28;20516;-67
2022/08/16 03:41:11;;;;;;;4.30;2.03;;;16.80;90.10;;;;;;5014412;28;20446;-72
2022/08/16 03:43:38;;;;;;;6.17;1.97;;;16.80;90.00;;;;;;5018654;28;20458;-66
2022/08/16 03:46:06;;;;;;;3.60;2.00;;;16.70;90.10;;;;;;5018043;28;20474;-72
2022/08/16 03:48:36;;;;;;;3.00;1.77;;;16.70;90.30;;;;;;5020111;28;20470;-66
2022/08/16 03:51:05;;;;;;;3.97;2.30;;;16.60;90.40;;;;;;5018124;28;20489;-70
2022/08/16 03:53:32;;;;;;;7.33;3.77;;;16.60;90.30;;;;;;5017489;28;20446;-66
2022/08/16 03:55:59;;;;;;;6.30;3.87;;;16.50;90.50;;;;;;5018163;28;20497;-66
2022/08/16 03:58:28;;;;;;;5.47;3.70;;;16.40;90.60;;;;;;5018165;28;20442;-66
2022/08/16 04:00:56;;;;;;;5.10;2.90;;;16.40;91.00;;;;;;5018137;28;20442;-66
2022/08/16 04:03:23;;;;;;;11.13;3.33;;;16.40;91.30;;;;;;5034828;28;20483;-66
2022/08/16 04:05:51;;;;;;;8.33;3.27;;;16.30;91.10;;;;;;5038630;28;20487;-66
2022/08/16 04:08:20;;;;;;;4.20;2.57;;;16.30;91.20;;;;;;5037511;28;20924;-66
2022/08/16 04:10:47;;;;;;;6.37;2.60;;;16.30;91.10;;;;;;5037594;28;20940;-67
2022/08/16 04:13:15;;;;;;;5.30;2.43;;;16.30;91.10;;;;;;5037376;28;20508;-66
2022/08/16 04:15:43;;;;;;;3.30;2.40;;;16.30;91.30;;;;;;5037842;28;20468;-67
2022/08/16 04:18:10;;;;;;;4.10;2.20;;;16.30;91.40;;;;;;5037564;28;20495;-66
2022/08/16 04:20:38;;;;;;;4.50;2.83;;;16.20;91.40;;;;;;5033592;28;20462;-66
2022/08/16 04:23:06;;;;;;;5.00;2.33;;;16.20;91.40;;;;;;5027481;28;20795;-66
2022/08/16 04:25:34;;;;;;;3.60;2.63;;;16.20;91.30;;;;;;5015390;28;20434;-66
2022/08/16 04:28:02;;;;;;;3.57;2.17;;;16.30;91.40;;;;;;5015319;28;20505;-66
2022/08/16 04:30:29;;;;;;;5.30;2.27;;;16.30;91.30;;;;;;5015298;28;20439;-66
2022/08/16 04:32:57;;;;;;;3.67;2.63;;;16.30;91.40;;;;;;5014789;28;20536;-66
2022/08/16 04:35:27;;;;;;;2.97;1.93;;;16.30;91.10;;;;;;4995511;28;20506;-66
2022/08/16 04:37:54;;;;;;;3.73;2.43;;;16.20;91.10;;;;;;4995947;28;20436;-66
2022/08/16 04:40:23;;;;;;;4.87;2.23;;;16.20;91.30;;;;;;4995652;28;20452;-66
2022/08/16 04:42:51;;;;;;;3.10;2.13;;;16.20;91.40;;;;;;4995414;28;20923;-66
2022/08/16 04:45:19;;;;;;;3.07;2.50;;;16.20;91.50;;;;;;5032232;28;20438;-66
2022/08/16 04:47:47;;;;;;;3.00;1.77;;;16.20;91.50;;;;;;5011247;28;20999;-66
2022/08/16 04:50:18;;;;;;;9.50;2.77;;;16.20;91.30;;;;;;5012704;28;20533;-67
2022/08/16 04:52:46;;;;;;;4.67;2.30;;;16.20;91.30;;;;;;5013329;28;20566;-66
2022/08/16 04:55:17;;;;;;;4.83;2.20;;;16.20;91.20;;;;;;5013084;28;20846;-67
2022/08/16 04:57:45;;;;;;;3.30;2.40;;;16.20;91.30;;;;;;5012887;28;20522;-66
2022/08/16 05:00:15;;;;;;;6.53;2.53;;;16.30;91.40;;;;;;5012664;28;20431;-66
2022/08/16 05:02:42;;;;;;;3.00;2.10;;;16.30;91.30;;;;;;5011839;28;20427;-66
2022/08/16 05:05:11;;;;;;;4.43;2.50;;;16.30;91.30;;;;;;5012435;28;20470;-67
2022/08/16 05:07:39;;;;;;;4.70;1.90;;;16.40;91.40;;;;;;5012598;28;20948;-66
2022/08/16 05:10:09;;;;;;;2.70;2.00;;;16.40;91.30;;;;;;5013323;28;20820;-66
2022/08/16 05:12:37;;;;;;;4.43;2.47;;;16.40;91.50;;;;;;5012993;28;20510;-66
2022/08/16 05:15:04;;;;;;;3.43;2.50;;;16.50;91.50;;;;;;5008569;28;20438;-66
2022/08/16 05:17:31;;;;;;;4.40;2.93;;;16.50;91.40;;;;;;5010811;28;20497;-66
2022/08/16 05:19:59;;;;;;;5.70;3.70;;;16.50;91.10;;;;;;5012907;28;20470;-66
2022/08/16 05:22:26;;;;;;;6.43;3.57;;;16.50;91.30;;;;;;5011157;28;21341;-66
2022/08/16 05:24:55;;;;;;;6.63;4.27;;;16.40;91.60;;;;;;5012698;28;20443;-66
2022/08/16 05:27:23;;;;;;;7.00;3.83;;;16.50;91.70;;;;;;5011913;28;20450;-66
2022/08/16 05:29:55;;;;;;;10.33;4.47;;;16.60;91.50;;;;;;5012517;28;20446;-66
2022/08/16 05:32:22;;;;;;;9.70;5.27;;;16.70;91.60;;;;;;5007814;28;20561;-66
2022/08/16 05:34:49;;;;;;;5.97;4.60;;;16.70;92.30;;;;;;5012550;28;20589;-66
2022/08/16 05:37:16;;;;;;;5.07;3.00;;;16.80;92.20;;;;;;5016361;28;20447;-66
2022/08/16 05:39:43;;;;;;;3.10;2.43;;;16.90;92.20;;;;;;5012089;28;20929;-68
2022/08/16 05:42:12;;;;;;;7.50;2.20;;;17.00;91.90;;;;;;5008086;28;20947;-66
2022/08/16 05:44:39;;;;;;;4.73;3.10;;;17.10;91.60;;;;;;5012353;28;20852;-67
2022/08/16 05:47:07;;;;;;;5.80;3.10;;;17.20;91.40;;;;;;5011636;28;20501;-67
2022/08/16 05:49:34;;;;;;;4.40;2.17;;;17.30;91.10;;;;;;5010269;28;20430;-68
2022/08/16 05:52:01;;;;;;;3.80;2.33;;;17.40;90.20;;;;;;5008209;28;20493;-67
2022/08/16 05:54:29;;;;;;;3.13;2.07;;;17.40;90.00;;;;;;5012257;28;20851;-66
2022/08/16 05:56:57;;;;;;;4.23;3.13;;;17.50;90.20;;;;;;5011969;28;20547;-66
2022/08/16 05:59:26;;;;;;;5.10;3.50;;;17.60;89.70;;;;;;5012625;28;20450;-66
2022/08/16 06:01:54;;;;;;;5.20;2.53;;;17.70;89.80;;;;;;5007282;28;20493;-66
2022/08/16 06:04:22;;;;;;;4.40;2.80;;;17.80;89.60;;;;;;5011964;28;20501;-67
2022/08/16 06:06:49;;;;;;;3.27;2.20;;;17.90;88.80;;;;;;5004475;28;20443;-66
2022/08/16 06:09:17;;;;;;;3.67;2.07;;;17.90;87.70;;;;;;5011507;28;20442;-67
2022/08/16 06:11:46;;;;;;;3.67;2.37;;;18.00;87.10;;;;;;5011553;28;20434;-68
2022/08/16 06:14:14;;;;;;;3.00;2.00;;;18.10;87.60;;;;;;5009645;28;20447;-67
2022/08/16 06:16:42;;;;;;;3.50;2.23;;;18.10;87.90;;;;;;5011882;28;20446;-67
2022/08/16 06:19:10;;;;;;;3.67;1.90;;;18.20;87.20;;;;;;5009568;28;20476;-66
2022/08/16 06:21:38;;;;;;;3.33;1.90;;;18.20;87.30;;;;;;5010930;28;20443;-66
2022/08/16 06:24:05;;;;;;;2.90;2.50;;;18.30;86.90;;;;;;5011624;28;20473;-66
2022/08/16 06:26:32;;;;;;;3.70;2.10;;;18.40;86.20;;;;;;5011172;28;20496;-68
2022/08/16 06:28:59;;;;;;;4.90;2.43;;;18.50;86.40;;;;;;5011446;28;20446;-67
2022/08/16 06:31:27;;;;;;;4.63;2.47;;;18.50;84.70;;;;;;5010549;28;20446;-66
2022/08/16 06:33:55;;;;;;;2.70;2.00;;;18.60;85.00;;;;;;5011459;28;20490;-66
2022/08/16 06:36:23;;;;;;;3.10;2.40;;;18.60;85.30;;;;;;5010920;28;20446;-66
2022/08/16 06:38:50;;;;;;;3.77;1.73;;;18.80;85.60;;;;;;5012096;28;20438;-66
2022/08/16 06:41:17;;;;;;;6.70;2.17;;;18.90;85.40;;;;;;5011321;28;20542;-67
2022/08/16 06:43:44;;;;;;;3.17;2.10;;;19.10;84.30;;;;;;5011526;28;20438;-66
2022/08/16 06:46:24;;;;;;;3.50;2.47;;;19.20;83.90;;;;;;5011464;28;20885;-67
2022/08/16 06:48:50;;;;;;;4.97;2.20;;;19.30;83.40;;;;;;5012083;28;20533;-66
2022/08/16 06:51:19;;;;;;;5.33;2.00;;;19.30;82.10;;;;;;5011812;28;20534;-68
2022/08/16 06:53:46;;;;;;;3.03;2.10;;;19.50;82.10;;;;;;5007650;28;20572;-66
2022/08/16 06:56:13;;;;;;;3.40;2.10;;;19.50;81.10;;;;;;5011709;28;20535;-67
2022/08/16 06:58:40;;;;;;;3.10;2.40;;;19.50;81.70;;;;;;5011821;28;20523;-66
2022/08/16 07:01:07;;;;;;;2.93;1.97;;;19.60;80.80;;;;;;5011571;28;20534;-67
2022/08/16 07:03:34;;;;;;;3.40;1.90;;;19.60;81.30;;;;;;5007685;28;20482;-67
2022/08/16 07:06:01;;;;;;;2.80;2.03;;;19.70;81.30;;;;;;5011805;28;20530;-66
2022/08/16 07:08:29;;;;;;;3.30;1.73;;;19.90;81.60;;;;;;5011735;28;20480;-66
2022/08/16 07:10:59;;;;;;;7.47;2.03;;;20.10;82.10;;;;;;5011574;28;20519;-67
2022/08/16 07:13:26;;;;;;;2.73;1.57;;;20.30;80.70;;;;;;5011678;28;21033;-66
2022/08/16 07:15:53;;;;;;;2.77;1.97;;;20.40;81.20;;;;;;5011826;28;22138;-66
2022/08/16 07:18:21;;;;;;;2.60;1.50;;;20.50;79.60;;;;;;5011103;28;20535;-66
2022/08/16 07:23:16;;;;;;;2.97;1.80;;;20.80;81.10;;;;;;5020013;23;20910;-66
2022/08/16 07:25:44;;;;;;;2.63;2.20;;;20.90;79.70;;;;;;4990024;28;20520;-67
2022/08/16 07:28:13;;;;;;;2.80;2.10;;;21.00;78.70;;;;;;4991833;28;20506;-66
2022/08/16 07:30:42;;;;;;;2.80;1.90;;;21.20;79.70;;;;;;4991739;28;20489;-66
2022/08/16 07:33:09;;;;;;;2.63;1.87;;;21.40;79.40;;;;;;4991660;28;20573;-68
2022/08/16 07:35:37;;;;;;;2.97;1.73;;;21.60;77.50;;;;;;4986220;28;20920;-66
2022/08/16 07:38:05;;;;;;;2.40;1.33;;;21.70;76.30;;;;;;4991245;28;20491;-66
2022/08/16 07:40:32;;;;;;;2.33;1.63;;;21.90;75.10;;;;;;4990164;28;20439;-67
2022/08/16 07:43:01;;;;;;;3.70;1.90;;;22.00;73.80;;;;;;4990832;28;20798;-67
2022/08/16 07:45:28;;;;;;;3.50;2.10;;;22.20;75.70;;;;;;4991628;28;20839;-66
2022/08/16 07:47:55;;;;;;;2.70;1.33;;;22.30;72.70;;;;;;4990962;28;20502;-67
2022/08/16 07:50:22;;;;;;;3.30;1.70;;;22.50;70.90;;;;;;4991307;28;20479;-67
2022/08/16 07:52:49;;;;;;;3.20;2.13;;;22.60;71.40;;;;;;4990663;28;20518;-67
2022/08/16 07:55:17;;;;;;;2.47;1.57;;;22.80;69.80;;;;;;4995275;28;20934;-67
2022/08/16 07:57:44;;;;;;;3.00;2.00;;;22.80;70.40;;;;;;4993399;28;20444;-66
2022/08/16 08:00:13;;;;;;;2.90;2.10;;;23.10;72.00;;;;;;4994933;28;20966;-67
2022/08/16 08:02:41;;;;;;;3.33;1.80;;;23.20;70.90;;;;;;4995177;28;20435;-66
2022/08/16 08:05:09;;;;;;;3.13;1.63;;;23.30;69.80;;;;;;4994761;28;20463;-66
2022/08/16 08:07:36;;;;;;;2.97;1.67;;;23.50;69.90;;;;;;4994682;28;20803;-66
2022/08/16 08:10:05;;;;;;;2.87;2.10;;;23.70;68.20;;;;;;4993670;28;20469;-67
2022/08/16 08:12:32;;;;;;;4.43;2.07;;;23.80;68.10;;;;;;4994744;28;20482;-66
2022/08/16 08:14:59;;;;;;;3.27;2.10;;;24.00;66.20;;;;;;4994930;28;20510;-67
2022/08/16 08:17:29;;;;;;;3.60;1.90;;;24.20;64.70;;;;;;4992937;28;20534;-67
2022/08/16 08:19:56;;;;;;;4.20;2.93;;;24.30;64.10;;;;;;4994422;28;20446;-66
2022/08/16 08:22:23;;;;;;;6.43;1.90;;;24.50;66.30;;;;;;4994634;28;20498;-67
2022/08/16 08:24:50;;;;;;;9.47;5.27;;;24.70;64.90;;;;;;4994040;28;20546;-68
2022/08/16 08:27:17;;;;;;;4.20;3.20;;;24.90;65.30;;;;;;4991163;28;20490;-68
2022/08/16 08:29:44;;;;;;;3.00;2.03;;;25.10;65.90;;;;;;4990326;28;20478;-67
2022/08/16 08:32:11;;;;;;;4.40;1.90;;;25.30;62.60;;;;;;4994608;28;20447;-67
2022/08/16 08:34:40;;;;;;;3.60;2.00;;;25.50;61.50;;;;;;4994610;28;20474;-67
2022/08/16 08:37:07;;;;;;;4.27;2.03;;;25.70;61.50;;;;;;4993961;28;20452;-67
2022/08/16 08:39:37;;;;;;;8.33;2.23;;;25.80;57.70;;;;;;4993602;28;20514;-66
2022/08/16 08:42:05;;;;;;;3.30;1.97;;;25.90;57.90;;;;;;4993953;28;20452;-66
2022/08/16 08:44:32;;;;;;;6.63;2.03;;;26.00;58.90;;;;;;4993790;28;20883;-68
2022/08/16 08:47:01;;;;;;;4.83;2.13;;;26.10;58.30;;;;;;4993910;28;20467;-66
2022/08/16 08:49:28;;;;;;;4.10;2.03;;;26.30;57.80;;;;;;4994039;28;20534;-67
2022/08/16 08:51:56;;;;;;;2.50;1.70;;;26.40;57.30;;;;;;4993404;28;20502;-67
2022/08/16 08:54:24;;;;;;;6.47;2.80;;;26.60;55.10;;;;;;4991660;28;20598;-67
2022/08/16 08:56:51;;;;;;;4.43;3.20;;;26.80;54.00;;;;;;4993372;28;20439;-67
2022/08/16 08:59:18;;;;;;;4.70;2.40;;;27.00;52.70;;;;;;4992683;28;20447;-67
2022/08/16 09:01:46;;;;;;;6.97;2.93;;;27.00;53.90;;;;;;4992887;28;20494;-67
2022/08/16 09:04:14;;;;;;;4.80;2.70;;;27.20;55.00;;;;;;4993503;28;20574;-67
2022/08/16 09:06:42;;;;;;;4.10;2.50;;;27.40;53.90;;;;;;4993066;28;20467;-66
2022/08/16 09:09:11;;;;;;;5.30;2.80;;;27.50;53.40;;;;;;4993609;28;20447;-67
2022/08/16 09:11:42;;;;;;;4.53;2.30;;;27.70;51.80;;;;;;4993175;28;21005;-67
2022/08/16 09:14:09;;;;;;;7.00;3.10;;;27.80;49.60;;;;;;4993572;28;20491;-66
2022/08/16 09:16:37;;;;;;;5.23;2.80;;;27.90;50.00;;;;;;4993084;28;20997;-67
2022/08/16 09:19:04;;;;;;;5.67;2.70;;;28.10;50.70;;;;;;4993076;28;20454;-66
2022/08/16 09:21:31;;;;;;;4.10;2.40;;;28.20;49.60;;;;;;4993318;28;20542;-67
2022/08/16 09:23:58;;;;;;;3.93;2.90;;;28.40;49.60;;;;;;4993107;28;20472;-67
2022/08/16 09:26:26;;;;;;;4.43;2.43;;;28.50;49.20;;;;;;4992184;28;20498;-67
2022/08/16 09:28:53;;;;;;;5.67;2.37;;;28.60;47.70;;;;;;4992681;28;20431;-68
2022/08/16 09:31:22;;;;;;;7.10;2.57;;;28.60;47.60;;;;;;4988831;28;20475;-66
2022/08/16 09:33:49;;;;;;;4.03;2.70;;;28.80;49.30;;;;;;4992572;28;20541;-67
2022/08/16 09:36:17;;;;;;;7.20;3.20;;;28.90;48.70;;;;;;4992866;28;20873;-67
2022/08/16 09:38:44;;;;;;;3.63;2.50;;;29.10;48.90;;;;;;4992422;28;20439;-67
2022/08/16 09:41:12;;;;;;;7.13;2.30;;;29.20;47.20;;;;;;4992550;28;20922;-66
2022/08/16 09:43:40;;;;;;;5.13;3.27;;;29.30;47.70;;;;;;4992943;28;20526;-66
2022/08/16 09:46:08;;;;;;;3.87;2.67;;;29.40;47.80;;;;;;4992555;28;20490;-67
2022/08/16 09:48:36;;;;;;;3.57;2.63;;;29.60;47.60;;;;;;4992129;28;20530;-67
2022/08/16 09:51:04;;;;;;;3.50;2.50;;;29.70;47.10;;;;;;4992379;28;20451;-67
2022/08/16 09:53:31;;;;;;;3.50;2.33;;;29.90;46.40;;;;;;4992325;28;20483;-67
2022/08/16 09:56:00;;;;;;;3.93;2.53;;;30.00;45.60;;;;;;4992176;28;20986;-68
2022/08/16 09:58:28;;;;;;;3.10;2.50;;;30.10;45.70;;;;;;4988645;28;20444;-67
2022/08/16 10:00:56;;;;;;;7.30;2.43;;;30.20;45.40;;;;;;4992054;28;20534;-67
2022/08/16 10:03:23;;;;;;;3.77;2.73;;;30.30;44.60;;;;;;4992214;28;20476;-68
2022/08/16 10:05:50;;;;;;;3.47;2.27;;;30.40;45.50;;;;;;4991973;28;20528;-67
2022/08/16 10:08:18;;;;;;;3.80;2.80;;;30.50;42.80;;;;;;4992398;28;20487;-68
2022/08/16 10:13:10;;;;;;;3.20;2.37;;;30.40;43.70;;;;;;4992541;28;20482;-67
2022/08/16 10:13:33;;;;;;;2.90;2.30;;;30.40;42.50;;;;;;4992137;28;20484;-67
2022/08/16 10:16:01;;;;;;;3.47;2.90;;;30.30;40.80;;;;;;4991428;28;20447;-67
2022/08/16 10:18:29;;;;;;;4.53;2.80;;;30.40;42.50;;;;;;4991064;28;20471;-69
2022/08/16 10:20:58;;;;;;;3.73;2.33;;;30.40;43.60;;;;;;4992104;28;20935;-66
2022/08/16 10:23:25;;;;;;;4.13;2.73;;;30.50;43.10;;;;;;4989350;28;20467;-67
2022/08/16 10:25:52;;;;;;;4.63;2.73;;;30.70;43.60;;;;;;4991848;28;20440;-68
2022/08/16 10:28:20;;;;;;;4.80;3.00;;;30.80;42.90;;;;;;4992016;28;20466;-69
2022/08/16 10:30:47;;;;;;;3.73;2.90;;;30.80;40.50;;;;;;4991970;28;20502;-67
2022/08/16 10:33:15;;;;;;;3.80;2.50;;;30.90;42.30;;;;;;4992052;28;20519;-67
2022/08/16 10:35:44;;;;;;;4.57;2.53;;;30.90;41.70;;;;;;4991523;28;20475;-69
2022/08/16 10:38:11;;;;;;;3.53;2.20;;;31.00;41.40;;;;;;4991828;28;20493;-67
2022/08/16 10:40:39;;;;;;;3.10;2.50;;;31.10;41.60;;;;;;4990494;28;20448;-67
2022/08/16 10:43:07;;;;;;;3.93;2.43;;;31.30;39.70;;;;;;4991624;28;20452;-67
2022/08/16 10:45:34;;;;;;;3.90;2.67;;;31.40;36.50;;;;;;4990872;28;20475;-67
2022/08/16 10:48:01;;;;;;;3.30;2.40;;;31.40;35.60;;;;;;4991500;28;20471;-67
2022/08/16 10:50:31;;;;;;;4.03;2.30;;;31.50;36.50;;;;;;4991605;28;20435;-67
2022/08/16 10:52:58;;;;;;;4.57;2.57;;;31.50;35.80;;;;;;4991415;28;20436;-67
2022/08/16 10:55:25;;;;;;;3.33;2.40;;;31.50;36.60;;;;;;4986871;28;20443;-67
2022/08/16 10:57:55;;;;;;;3.90;2.53;;;31.50;36.10;;;;;;4991608;28;20532;-67
2022/08/16 11:00:22;;;;;;;3.90;2.17;;;31.60;36.10;;;;;;4991587;28;20474;-67
2022/08/16 11:02:50;;;;;;;4.77;2.53;;;31.70;35.70;;;;;;4991154;28;20443;-68
2022/08/16 11:05:18;;;;;;;2.90;2.30;;;31.70;35.40;;;;;;4991634;28;20446;-67
2022/08/16 11:07:51;;;;;;;3.07;2.53;;;31.70;37.10;;;;;;4994974;28;20513;-69
2022/08/16 11:10:22;;;;;;;4.83;3.20;;;31.80;36.30;;;;;;4990875;28;20486;-71
2022/08/16 11:12:50;;;;;;;3.97;3.57;;;31.90;36.10;;;;;;4991460;28;20784;-66
2022/08/16 11:15:17;;;;;;;3.60;2.60;;;32.00;36.00;;;;;;4991034;28;20506;-68
2022/08/16 11:17:44;;;;;;;3.87;2.90;;;32.00;35.90;;;;;;4990963;28;20485;-67
2022/08/16 11:20:12;;;;;;;5.40;2.83;;;32.10;35.00;;;;;;4992858;28;20439;-67
2022/08/16 11:22:41;;;;;;;3.70;2.87;;;32.00;33.30;;;;;;4990412;28;20451;-68
2022/08/16 11:25:10;;;;;;;4.53;2.27;;;32.00;33.90;;;;;;4948263;28;20545;-67
2022/08/16 11:27:38;;;;;;;2.93;2.57;;;31.90;34.90;;;;;;4955745;28;20444;-67
2022/08/16 11:30:06;;;;;;;3.53;3.10;;;32.00;35.70;;;;;;4959306;28;20482;-67
2022/08/16 11:32:33;;;;;;;4.00;2.53;;;32.00;35.80;;;;;;4968562;28;20441;-67
2022/08/16 11:35:03;;;;;;;3.80;3.00;;;32.10;33.20;;;;;;4967001;28;20500;-68
2022/08/16 11:37:32;;;;;;;4.00;2.23;;;32.00;33.10;;;;;;4969929;28;20507;-67
2022/08/16 11:39:58;;;;;;;5.57;2.37;;;32.00;34.70;;;;;;4966254;28;20476;-67
2022/08/16 11:42:27;;;;;;;4.20;2.53;;;31.90;34.50;;;;;;4965421;28;20484;-68
2022/08/16 11:44:54;;;;;;;4.60;2.60;;;31.80;34.60;;;;;;4966465;28;20451;-67
2022/08/16 11:47:21;;;;;;;6.97;2.60;;;31.90;34.90;;;;;;4962063;28;20911;-67
2022/08/16 11:49:48;;;;;;;3.30;2.60;;;31.90;34.50;;;;;;4961630;28;20480;-68
2022/08/16 11:52:16;;;;;;;6.50;2.00;;;32.00;34.70;;;;;;4966488;28;20564;-68
2022/08/16 11:54:43;;;;;;;4.20;3.10;;;32.00;33.80;;;;;;4962190;28;20492;-66
2022/08/16 11:57:10;;;;;;;4.10;2.07;;;32.00;33.50;;;;;;4966672;28;20492;-67
2022/08/16 11:59:39;;;;;;;4.17;2.60;;;32.00;32.10;;;;;;4964547;28;20800;-66
2022/08/16 12:02:07;;;;;;;4.50;2.40;;;32.00;31.20;;;;;;4960779;28;20831;-68
2022/08/16 12:04:35;;;;;;;5.13;3.00;;;31.80;30.90;;;;;;4966251;28;20519;-67
2022/08/16 12:07:02;;;;;;;4.30;2.80;;;31.80;30.50;;;;;;4962933;28;20477;-67
2022/08/16 12:09:30;;;;;;;4.43;2.60;;;31.70;31.80;;;;;;4960744;28;20476;-66
2022/08/16 12:11:58;;;;;;;11.80;3.50;;;31.60;31.10;;;;;;4965780;28;20446;-67
2022/08/16 12:14:26;;;;;;;4.30;2.60;;;31.70;33.50;;;;;;4961754;28;20534;-67
2022/08/16 12:17:00;;;;;;;35.50;8.10;;;31.80;34.10;;;;;;4964793;28;20437;-67
2022/08/16 12:19:27;;;;;;;9.60;4.10;;;31.90;34.20;;;;;;4964516;28;20449;-66
2022/08/16 12:21:54;;;;;;;114.13;17.73;;;31.90;34.40;;;;;;4959939;28;20527;-67
2022/08/16 12:24:22;;;;;;;24.77;4.77;;;31.90;35.00;;;;;;4986900;28;20525;-66
2022/08/16 12:26:49;;;;;;;3.60;2.40;;;32.00;33.80;;;;;;4997286;28;20844;-67
2022/08/16 12:29:16;;;;;;;3.80;2.83;;;32.00;33.60;;;;;;4994556;28;20525;-66
2022/08/16 12:31:43;;;;;;;3.30;2.80;;;32.10;33.60;;;;;;4995630;28;20885;-66
2022/08/16 12:34:11;;;;;;;3.47;2.40;;;32.10;33.30;;;;;;4995809;28;20546;-66
2022/08/16 12:36:38;;;;;;;6.10;2.77;;;32.10;32.30;;;;;;4992780;28;20471;-67
2022/08/16 12:39:06;;;;;;;5.10;2.77;;;32.10;33.00;;;;;;4995075;28;20440;-67
2022/08/16 12:41:36;;;;;;;3.37;2.50;;;32.20;32.90;;;;;;4996867;28;20451;-67
2022/08/16 12:44:04;;;;;;;6.30;2.50;;;32.20;32.20;;;;;;4997480;28;20459;-67
2022/08/16 12:46:31;;;;;;;3.10;2.37;;;32.20;33.70;;;;;;4995020;28;20447;-67
2022/08/16 12:48:59;;;;;;;2.80;2.23;;;32.40;33.10;;;;;;4994797;28;20532;-66
2022/08/16 12:51:33;;;;;;;3.80;2.40;;;32.40;30.50;;;;;;4998289;28;20842;-66